Time,TemperatureF,DewpointF,PressureIn,WindDirection,WindDirectionDegrees,WindSpeedMPH,WindSpeedGustMPH,Humidity,HourlyPrecipIn,Conditions,Clouds,dailyrainin,SoftwareType,DateUTC
2013-10-24 00:01:00,33.6,31.8,30.02,WNW,292,1.0,2.0,93,0.00,,---,0.00,VWS V14.01,2013-10-24 04:01:00,
2013-10-24 00:16:00,33.5,31.7,30.01,WNW,292,0.0,2.0,93,0.00,,---,0.00,VWS V14.01,2013-10-24 04:16:00,
2013-10-24 00:31:00,33.5,32.0,30.02,WNW,292,1.0,3.0,94,0.00,,---,0.00,VWS V14.01,2013-10-24 04:31:00,
2013-10-24 00:46:00,33.7,32.2,30.02,West,281,0.0,4.0,94,0.00,,---,0.00,VWS V14.01,2013-10-24 04:46:00,
2013-10-24 01:01:00,33.8,32.3,30.01,West,281,0.0,3.0,94,0.00,,---,0.00,VWS V14.01,2013-10-24 05:01:00,
2013-10-24 01:16:00,33.7,32.2,30.01,SSW,199,1.0,6.0,94,0.00,,---,0.00,VWS V14.01,2013-10-24 05:16:00,
2013-10-24 01:31:00,33.8,32.3,30.01,SSW,198,4.0,6.0,94,0.00,,---,0.00,VWS V14.01,2013-10-24 05:31:00,
2013-10-24 01:46:00,33.9,32.4,30.01,SSW,197,0.0,5.0,94,0.00,,---,0.00,VWS V14.01,2013-10-24 05:46:00,
2013-10-24 02:01:00,34.0,32.2,30.02,SSW,198,1.0,4.0,93,0.00,,---,0.00,VWS V14.01,2013-10-24 06:01:00,
2013-10-24 02:16:00,34.5,32.7,30.03,WSW,253,5.0,5.0,93,0.00,,---,0.00,VWS V14.01,2013-10-24 06:16:00,
2013-10-24 02:31:00,34.1,32.0,30.02,West,273,3.0,6.0,92,0.00,,---,0.00,VWS V14.01,2013-10-24 06:31:00,
2013-10-24 02:46:00,33.4,31.6,30.02,West,271,0.0,5.0,93,0.00,,---,0.00,VWS V14.01,2013-10-24 06:46:00,
2013-10-24 03:01:00,33.9,32.1,30.03,West,271,3.0,6.0,93,0.00,,---,0.00,VWS V14.01,2013-10-24 07:01:00,
2013-10-24 03:16:00,34.1,32.0,30.03,NW,304,3.0,13.0,92,0.00,,---,0.00,VWS V14.01,2013-10-24 07:16:00,
2013-10-24 03:31:00,33.7,31.9,30.03,NW,316,3.0,6.0,93,0.00,,---,0.00,VWS V14.01,2013-10-24 07:31:00,
2013-10-24 03:46:00,33.9,32.1,30.04,West,271,6.0,9.0,93,0.00,,---,0.00,VWS V14.01,2013-10-24 07:46:00,
2013-10-24 04:01:00,33.6,31.8,30.03,West,269,3.0,10.0,93,0.00,,---,0.00,VWS V14.01,2013-10-24 08:01:00,
2013-10-24 04:16:00,33.5,31.7,30.03,West,269,0.0,5.0,93,0.00,,---,0.00,VWS V14.01,2013-10-24 08:16:00,
2013-10-24 04:31:00,33.6,32.1,30.03,West,269,1.0,4.0,94,0.00,,---,0.00,VWS V14.01,2013-10-24 08:31:00,
2013-10-24 04:46:00,33.8,32.3,30.03,West,269,4.0,5.0,94,0.00,,---,0.00,VWS V14.01,2013-10-24 08:46:00,
2013-10-24 05:01:00,33.9,32.1,30.03,West,269,0.0,5.0,93,0.00,,---,0.00,VWS V14.01,2013-10-24 09:01:00,
2013-10-24 05:16:00,33.5,31.7,30.03,WNW,293,4.0,6.0,93,0.00,,---,0.00,VWS V14.01,2013-10-24 09:16:00,
2013-10-24 05:31:00,33.8,31.7,30.04,WNW,284,3.0,10.0,92,0.00,,---,0.00,VWS V14.01,2013-10-24 09:31:00,
2013-10-24 05:46:00,33.6,31.5,30.04,WNW,290,2.0,7.0,92,0.00,,---,0.00,VWS V14.01,2013-10-24 09:46:00,
2013-10-24 06:01:00,33.6,31.8,30.05,WNW,290,0.0,2.0,93,0.00,,---,0.00,VWS V14.01,2013-10-24 10:01:00,
2013-10-24 06:16:00,33.4,31.6,30.05,WNW,290,3.0,6.0,93,0.00,,---,0.00,VWS V14.01,2013-10-24 10:16:00,
2013-10-24 06:31:00,32.6,30.8,30.06,WNW,290,2.0,6.0,93,0.00,,---,0.00,VWS V14.01,2013-10-24 10:31:00,
2013-10-24 06:46:00,32.1,30.6,30.06,SW,232,3.0,6.0,94,0.00,,---,0.00,VWS V14.01,2013-10-24 10:46:00,
2013-10-24 07:01:00,32.1,30.8,30.06,WSW,254,4.0,6.0,95,0.00,,---,0.00,VWS V14.01,2013-10-24 11:01:00,
2013-10-24 07:16:00,32.0,30.7,30.06,WSW,255,2.0,6.0,95,0.00,,---,0.00,VWS V14.01,2013-10-24 11:16:00,
2013-10-24 07:31:00,32.1,30.8,30.06,SW,236,3.0,9.0,95,0.00,,---,0.00,VWS V14.01,2013-10-24 11:31:00,
2013-10-24 07:46:00,32.4,31.1,30.06,SW,231,5.0,12.0,95,0.00,,---,0.00,VWS V14.01,2013-10-24 11:46:00,
2013-10-24 08:01:00,32.6,31.3,30.07,SSW,205,4.0,9.0,95,0.00,,---,0.00,VWS V14.01,2013-10-24 12:01:00,
2013-10-24 08:16:00,32.7,31.4,30.06,SW,221,2.0,9.0,95,0.00,,---,0.00,VWS V14.01,2013-10-24 12:16:00,
2013-10-24 08:31:00,32.7,31.4,30.06,SW,223,6.0,9.0,95,0.00,,---,0.00,VWS V14.01,2013-10-24 12:31:00,
2013-10-24 08:46:00,32.9,31.6,30.07,SW,219,4.0,9.0,95,0.00,,---,0.00,VWS V14.01,2013-10-24 12:46:00,
2013-10-24 09:01:00,33.1,31.6,30.08,SW,234,5.0,7.0,94,0.00,,---,0.00,VWS V14.01,2013-10-24 13:01:00,
2013-10-24 09:16:00,33.3,31.8,30.09,SW,234,1.0,5.0,94,0.00,,---,0.00,VWS V14.01,2013-10-24 13:16:00,
2013-10-24 09:31:00,33.9,32.4,30.10,NNE,27,6.0,6.0,94,0.00,,---,0.00,VWS V14.01,2013-10-24 13:31:00,
2013-10-24 09:46:00,34.4,32.9,30.10,NNE,29,0.0,6.0,94,0.00,,---,0.00,VWS V14.01,2013-10-24 13:46:00,
2013-10-24 10:01:00,35.2,33.4,30.11,North,5,1.0,4.0,93,0.00,,---,0.00,VWS V14.01,2013-10-24 14:01:00,
2013-10-24 10:16:00,35.5,33.4,30.12,NW,325,0.0,4.0,92,0.00,,---,0.00,VWS V14.01,2013-10-24 14:16:00,
2013-10-24 10:31:00,35.3,33.2,30.12,NW,325,1.0,2.0,92,0.00,,---,0.00,VWS V14.01,2013-10-24 14:31:00,
2013-10-24 10:46:00,35.2,33.1,30.13,NNW,327,0.0,4.0,92,0.00,,---,0.00,VWS V14.01,2013-10-24 14:46:00,
2013-10-24 11:01:00,35.1,33.0,30.13,NNW,327,0.0,4.0,92,0.00,,---,0.00,VWS V14.01,2013-10-24 15:01:00,
2013-10-24 11:16:00,35.0,32.9,30.13,NNW,327,0.0,4.0,92,0.00,,---,0.00,VWS V14.01,2013-10-24 15:16:00,
2013-10-24 11:31:00,35.4,33.6,30.14,NNW,327,1.0,3.0,93,0.00,,---,0.00,VWS V14.01,2013-10-24 15:31:00,
2013-10-24 11:46:00,35.7,33.6,30.15,NNW,347,3.0,6.0,92,0.00,,---,0.00,VWS V14.01,2013-10-24 15:46:00,
2013-10-24 12:01:00,35.4,33.3,30.15,NNW,340,0.0,6.0,92,0.01,,---,0.01,VWS V14.01,2013-10-24 16:01:00,
2013-10-24 12:16:00,36.2,34.1,30.15,WNW,284,3.0,6.0,92,0.01,,---,0.01,VWS V14.01,2013-10-24 16:16:00,
2013-10-24 12:31:00,36.9,34.2,30.15,WNW,296,4.0,9.0,90,0.01,,---,0.01,VWS V14.01,2013-10-24 16:31:00,
2013-10-24 12:46:00,35.9,33.3,30.16,WNW,285,4.0,10.0,90,0.01,,---,0.01,VWS V14.01,2013-10-24 16:46:00,
2013-10-24 13:01:00,35.8,33.2,30.16,WNW,292,1.0,7.0,90,0.01,,---,0.01,VWS V14.01,2013-10-24 17:01:00,
2013-10-24 13:16:00,37.1,33.9,30.15,WNW,286,0.0,8.0,88,0.00,,---,0.01,VWS V14.01,2013-10-24 17:16:00,
2013-10-24 13:31:00,39.1,35.6,30.15,NW,322,2.0,9.0,87,0.00,,---,0.01,VWS V14.01,2013-10-24 17:31:00,
2013-10-24 13:46:00,40.6,34.0,30.15,West,276,9.0,18.0,77,0.00,,---,0.01,VWS V14.01,2013-10-24 17:46:00,
2013-10-24 14:01:00,40.8,34.8,30.16,WNW,285,3.0,17.0,79,0.00,,---,0.01,VWS V14.01,2013-10-24 18:01:00,
2013-10-24 14:16:00,38.1,33.7,30.17,NNE,27,3.0,8.0,84,0.00,,---,0.01,VWS V14.01,2013-10-24 18:16:00,
2013-10-24 14:31:00,36.0,32.5,30.16,North,9,1.0,5.0,87,0.00,,---,0.01,VWS V14.01,2013-10-24 18:31:00,
2013-10-24 14:46:00,35.3,32.7,30.17,North,9,2.0,3.0,90,0.00,,---,0.01,VWS V14.01,2013-10-24 18:46:00,
2013-10-24 15:01:00,35.4,32.8,30.17,WNW,284,1.0,8.0,90,0.00,,---,0.01,VWS V14.01,2013-10-24 19:01:00,
2013-10-24 15:16:00,36.5,34.1,30.17,West,264,3.0,7.0,91,0.00,,---,0.01,VWS V14.01,2013-10-24 19:16:00,
2013-10-24 15:31:00,36.6,34.0,30.17,West,263,4.0,8.0,90,0.00,,---,0.01,VWS V14.01,2013-10-24 19:31:00,
2013-10-24 15:46:00,37.6,34.1,30.18,West,269,7.0,12.0,87,0.00,,---,0.01,VWS V14.01,2013-10-24 19:46:00,
2013-10-24 16:01:00,37.3,33.2,30.18,WNW,303,1.0,14.0,85,0.00,,---,0.01,VWS V14.01,2013-10-24 20:01:00,
2013-10-24 16:16:00,37.3,32.9,30.18,WNW,289,2.0,10.0,84,0.00,,---,0.01,VWS V14.01,2013-10-24 20:16:00,
2013-10-24 16:31:00,37.8,32.8,30.19,West,276,4.0,8.0,82,0.00,,---,0.01,VWS V14.01,2013-10-24 20:31:00,
2013-10-24 16:46:00,38.0,32.7,30.19,West,277,5.0,9.0,81,0.00,,---,0.01,VWS V14.01,2013-10-24 20:46:00,
2013-10-24 17:01:00,38.1,32.5,30.20,WNW,289,4.0,7.0,80,0.00,,---,0.01,VWS V14.01,2013-10-24 21:01:00,
2013-10-24 17:16:00,38.0,32.4,30.20,WNW,290,3.0,7.0,80,0.00,,---,0.01,VWS V14.01,2013-10-24 21:16:00,
2013-10-24 17:31:00,38.0,32.1,30.20,WNW,290,2.0,5.0,79,0.00,,---,0.01,VWS V14.01,2013-10-24 21:31:00,
2013-10-24 17:46:00,38.1,32.2,30.20,WNW,290,5.0,8.0,79,0.00,,---,0.01,VWS V14.01,2013-10-24 21:46:00,
2013-10-24 18:01:00,38.4,31.8,30.21,WNW,290,5.0,8.0,77,0.00,,---,0.01,VWS V14.01,2013-10-24 22:01:00,
2013-10-24 18:16:00,38.3,31.7,30.21,WNW,288,3.0,7.0,77,0.00,,---,0.01,VWS V14.01,2013-10-24 22:16:00,
2013-10-24 18:31:00,38.2,31.6,30.22,West,265,3.0,8.0,77,0.00,,---,0.01,VWS V14.01,2013-10-24 22:31:00,
2013-10-24 18:46:00,38.0,31.1,30.22,West,269,3.0,8.0,76,0.00,,---,0.01,VWS V14.01,2013-10-24 22:46:00,
2013-10-24 19:01:00,37.6,31.4,30.23,West,275,6.0,7.0,78,0.00,,---,0.01,VWS V14.01,2013-10-24 23:01:00,
2013-10-24 19:16:00,37.9,31.4,30.23,West,273,4.0,8.0,77,0.00,,---,0.01,VWS V14.01,2013-10-24 23:16:00,
2013-10-24 19:31:00,37.8,31.2,30.24,West,273,2.0,6.0,77,0.00,,---,0.01,VWS V14.01,2013-10-24 23:31:00,
2013-10-24 19:46:00,37.8,31.2,30.24,West,273,2.0,4.0,77,0.00,,---,0.01,VWS V14.01,2013-10-24 23:46:00,
2013-10-24 20:01:00,37.7,31.1,30.24,West,273,3.0,5.0,77,0.00,,---,0.01,VWS V14.01,2013-10-25 00:01:00,
2013-10-24 20:16:00,37.4,31.2,30.25,West,273,2.0,4.0,78,0.00,,---,0.01,VWS V14.01,2013-10-25 00:16:00,
2013-10-24 20:31:00,37.3,31.4,30.25,West,273,3.0,5.0,79,0.00,,---,0.01,VWS V14.01,2013-10-25 00:31:00,
2013-10-24 20:46:00,37.2,31.3,30.26,West,273,0.0,4.0,79,0.00,,---,0.01,VWS V14.01,2013-10-25 00:46:00,
2013-10-24 21:01:00,37.2,31.3,30.26,West,273,1.0,3.0,79,0.00,,---,0.01,VWS V14.01,2013-10-25 01:01:00,
2013-10-24 21:16:00,37.0,31.1,30.26,West,273,3.0,4.0,79,0.01,,---,0.02,VWS V14.01,2013-10-25 01:16:00,
2013-10-24 21:31:00,36.5,31.5,30.27,WNW,283,7.0,14.0,82,0.01,,---,0.02,VWS V14.01,2013-10-25 01:31:00,
2013-10-24 21:46:00,36.4,31.4,30.26,WSW,248,2.0,9.0,82,0.01,,---,0.02,VWS V14.01,2013-10-25 01:46:00,
2013-10-24 22:01:00,36.1,31.1,30.27,WSW,248,1.0,4.0,82,0.01,,---,0.02,VWS V14.01,2013-10-25 02:01:00,
2013-10-24 22:16:00,35.5,30.6,30.27,WSW,248,0.0,3.0,82,0.01,,---,0.02,VWS V14.01,2013-10-25 02:16:00,
2013-10-24 22:31:00,34.8,30.5,30.28,WSW,248,2.0,3.0,84,0.00,,---,0.02,VWS V14.01,2013-10-25 02:31:00,
2013-10-24 22:46:00,35.1,30.5,30.29,West,279,4.0,6.0,83,0.00,,---,0.02,VWS V14.01,2013-10-25 02:46:00,
2013-10-24 23:01:00,35.2,31.4,30.29,WNW,294,5.0,9.0,86,0.00,,---,0.02,VWS V14.01,2013-10-25 03:01:00,
2013-10-24 23:16:00,34.6,31.7,30.29,WNW,293,2.0,6.0,89,0.00,,---,0.02,VWS V14.01,2013-10-25 03:16:00,
2013-10-24 23:31:00,34.7,32.1,30.28,SSW,210,2.0,5.0,90,0.00,,---,0.02,VWS V14.01,2013-10-25 03:31:00,
2013-10-24 23:46:00,34.7,32.3,30.29,SSW,210,0.0,5.0,91,0.00,,---,0.02,VWS V14.01,2013-10-25 03:46:00,